createdAt,value
2023-02-19T00:01:42.369Z,3.06
2023-02-19T00:04:15.135Z,3.05
2023-02-19T00:06:42.763Z,3.04
2023-02-19T00:09:11.590Z,3.04
2023-02-19T00:11:39.235Z,3.05
2023-02-19T00:14:06.700Z,3.02
2023-02-19T00:16:36.285Z,2.98
2023-02-19T00:19:06.264Z,2.98
2023-02-19T00:21:33.607Z,2.99
2023-02-19T00:24:05.584Z,2.97
2023-02-19T00:26:33.310Z,2.99
2023-02-19T00:29:01.029Z,2.96
2023-02-19T00:31:32.494Z,2.94
2023-02-19T00:34:05.328Z,2.95
2023-02-19T00:36:35.106Z,2.94
2023-02-19T00:39:02.466Z,2.95
2023-02-19T00:41:30.620Z,2.93
2023-02-19T00:43:59.494Z,2.93
2023-02-19T00:46:29.868Z,2.89
2023-02-19T00:48:57.487Z,2.89
2023-02-19T00:51:26.715Z,2.88
2023-02-19T00:53:53.805Z,2.87
2023-02-19T00:56:21.006Z,2.85
2023-02-19T00:58:48.168Z,2.84
2023-02-19T01:01:15.501Z,2.84
2023-02-19T01:03:42.564Z,2.82
2023-02-19T01:06:11.186Z,2.81
2023-02-19T01:08:38.382Z,2.81
2023-02-19T01:11:07.297Z,2.79
2023-02-19T01:13:34.520Z,2.79
2023-02-19T01:16:11.764Z,2.79
2023-02-19T01:18:39.203Z,2.77
2023-02-19T01:21:07.898Z,2.76
2023-02-19T01:23:36.011Z,2.72
2023-02-19T01:26:07.505Z,2.70
2023-02-19T01:28:35.318Z,2.67
2023-02-19T01:31:04.175Z,2.63
2023-02-19T01:33:31.380Z,2.60
2023-02-19T01:35:58.402Z,2.58
2023-02-19T01:38:25.724Z,2.56
2023-02-19T01:41:00.539Z,2.56
2023-02-19T01:43:28.034Z,2.58
2023-02-19T01:45:55.424Z,2.60
2023-02-19T01:48:35.549Z,2.63
2023-02-19T01:51:09.637Z,2.63
2023-02-19T01:53:41.023Z,2.62
2023-02-19T01:56:08.563Z,2.64
2023-02-19T01:58:37.289Z,2.66
2023-02-19T02:01:07.112Z,2.66
2023-02-19T02:03:36.122Z,2.67
2023-02-19T02:06:08.280Z,2.67
2023-02-19T02:08:55.216Z,2.70
2023-02-19T02:11:23.104Z,2.69
2023-02-19T02:13:50.649Z,2.69
2023-02-19T02:16:24.618Z,2.69
2023-02-19T02:19:02.150Z,2.69
2023-02-19T02:22:12.612Z,2.73
2023-02-19T02:25:05.647Z,2.75
2023-02-19T02:28:12.496Z,2.71
2023-02-19T02:30:43.897Z,2.73
2023-02-19T02:33:34.908Z,2.72
2023-02-19T02:36:09.292Z,2.71
2023-02-19T02:38:41.175Z,2.71
2023-02-19T02:41:09.121Z,2.71
2023-02-19T02:43:36.809Z,2.75
2023-02-19T02:46:04.117Z,2.73
2023-02-19T02:48:57.064Z,2.74
2023-02-19T02:51:30.819Z,2.72
2023-02-19T02:54:38.886Z,2.73
2023-02-19T02:57:14.962Z,2.79
2023-02-19T02:59:49.217Z,2.74
2023-02-19T03:02:24.008Z,2.69
2023-02-19T03:05:28.610Z,2.68
2023-02-19T03:08:16.033Z,2.70
2023-02-19T03:10:48.993Z,2.64
2023-02-19T03:13:39.796Z,2.61
2023-02-19T03:16:39.728Z,2.58
2023-02-19T03:19:28.911Z,2.54
2023-02-19T03:22:01.081Z,2.51
2023-02-19T03:24:52.203Z,2.47
2023-02-19T03:27:20.744Z,2.43
2023-02-19T03:29:53.686Z,2.37
2023-02-19T03:32:25.422Z,2.38
2023-02-19T03:35:06.188Z,2.37
2023-02-19T03:37:38.529Z,2.33
2023-02-19T03:40:06.203Z,2.31
2023-02-19T03:43:00.426Z,2.33
2023-02-19T03:45:49.562Z,2.31
2023-02-19T03:48:29.732Z,2.28
2023-02-19T03:51:06.205Z,2.26
2023-02-19T03:53:42.206Z,2.26
2023-02-19T03:56:19.022Z,2.26
2023-02-19T03:59:09.852Z,2.26
2023-02-19T04:01:43.457Z,2.28
2023-02-19T04:04:32.911Z,2.29
2023-02-19T04:07:00.507Z,2.26
2023-02-19T04:09:34.445Z,2.33
2023-02-19T04:12:07.316Z,2.34
2023-02-19T04:15:00.835Z,2.36
2023-02-19T04:17:34.568Z,2.30
2023-02-19T04:20:04.529Z,2.25
2023-02-19T04:22:31.556Z,2.23
2023-02-19T04:24:58.587Z,2.20
2023-02-19T04:27:25.611Z,2.14
2023-02-19T04:29:52.433Z,2.12
2023-02-19T04:32:19.396Z,2.10
2023-02-19T04:34:46.183Z,2.09
2023-02-19T04:37:13.126Z,2.08
2023-02-19T04:39:39.984Z,2.09
2023-02-19T04:42:06.836Z,2.07
2023-02-19T04:44:34.534Z,2.08
2023-02-19T04:47:01.561Z,2.07
2023-02-19T04:49:28.523Z,2.08
2023-02-19T04:51:55.442Z,2.08
2023-02-19T04:54:22.261Z,2.08
2023-02-19T04:56:50.796Z,2.07
2023-02-19T04:59:17.707Z,2.10
2023-02-19T05:01:44.636Z,2.14
2023-02-19T05:04:11.731Z,2.14
2023-02-19T05:06:38.611Z,2.16
2023-02-19T05:09:05.450Z,2.16
2023-02-19T05:11:32.331Z,2.18
2023-02-19T05:13:59.140Z,2.18
2023-02-19T05:16:26.245Z,2.22
2023-02-19T05:18:53.144Z,2.22
2023-02-19T05:21:20.160Z,2.22
2023-02-19T05:23:46.929Z,2.19
2023-02-19T05:26:19.868Z,2.18
2023-02-19T05:28:49.439Z,2.20
2023-02-19T05:31:17.112Z,2.27
2023-02-19T05:33:45.780Z,2.32
2023-02-19T05:36:13.988Z,2.33
2023-02-19T05:38:41.762Z,2.34
2023-02-19T05:41:14.661Z,2.37
2023-02-19T05:43:42.891Z,2.38
2023-02-19T05:46:11.196Z,2.37
2023-02-19T05:48:38.268Z,2.41
2023-02-19T05:51:07.802Z,2.44
2023-02-19T05:53:35.100Z,2.47
2023-02-19T05:56:02.093Z,2.48
2023-02-19T05:58:29.138Z,2.48
2023-02-19T06:00:56.200Z,2.49
2023-02-19T06:03:23.555Z,2.47
2023-02-19T06:05:50.531Z,2.50
2023-02-19T06:08:17.322Z,2.48
2023-02-19T06:10:44.257Z,2.49
2023-02-19T06:13:11.447Z,2.50
2023-02-19T06:15:38.768Z,2.49
2023-02-19T06:18:05.601Z,2.50
2023-02-19T06:20:33.141Z,2.49
2023-02-19T06:23:00.042Z,2.49
2023-02-19T06:25:26.878Z,2.52
2023-02-19T06:27:53.745Z,2.55
2023-02-19T06:30:20.734Z,2.55
2023-02-19T06:32:47.616Z,2.55
2023-02-19T06:35:14.486Z,2.58
2023-02-19T06:37:41.322Z,2.63
2023-02-19T06:40:09.326Z,2.61
2023-02-19T06:42:36.252Z,2.61
2023-02-19T06:45:03.014Z,2.65
2023-02-19T06:47:33.315Z,2.65
2023-02-19T06:50:00.617Z,2.71
2023-02-19T06:52:28.142Z,2.72
2023-02-19T06:54:55.016Z,2.71
2023-02-19T06:57:21.894Z,2.71
2023-02-19T06:59:48.870Z,2.69
2023-02-19T07:02:40.046Z,2.69
2023-02-19T07:05:23.624Z,2.69
2023-02-19T07:07:50.492Z,2.69
2023-02-19T07:10:17.364Z,2.70
2023-02-19T07:12:44.230Z,2.73
2023-02-19T07:15:11.181Z,2.69
2023-02-19T07:17:38.100Z,2.69
2023-02-19T07:20:05.162Z,2.65
2023-02-19T07:22:31.952Z,2.66
2023-02-19T07:24:58.825Z,2.66
2023-02-19T07:27:25.620Z,2.63
2023-02-19T07:29:53.021Z,2.65
2023-02-19T07:32:19.883Z,2.67
2023-02-19T07:34:46.712Z,2.64
2023-02-19T07:37:13.608Z,2.67
2023-02-19T07:39:40.417Z,2.69
2023-02-19T07:42:07.446Z,2.71
2023-02-19T07:44:34.365Z,2.76
2023-02-19T07:47:01.165Z,2.80
2023-02-19T07:49:28.859Z,2.85
2023-02-19T07:51:55.733Z,2.93
2023-02-19T07:54:22.644Z,2.95
2023-02-19T07:56:49.494Z,2.99
2023-02-19T07:59:19.468Z,2.99
2023-02-19T08:02:06.228Z,3.01
2023-02-19T08:04:33.377Z,3.08
2023-02-19T08:07:00.172Z,3.08
2023-02-19T08:09:27.069Z,3.09
2023-02-19T08:12:13.851Z,3.10
2023-02-19T08:14:40.715Z,3.12
2023-02-19T08:17:07.617Z,3.15
2023-02-19T08:19:34.610Z,3.21
2023-02-19T08:22:01.493Z,3.29
2023-02-19T08:24:28.444Z,3.34
2023-02-19T08:26:55.293Z,3.42
2023-02-19T08:29:22.230Z,3.41
2023-02-19T08:31:49.230Z,3.49
2023-02-19T08:34:16.163Z,3.53
2023-02-19T08:36:44.188Z,3.62
2023-02-19T08:39:11.002Z,3.75
2023-02-19T08:41:37.850Z,3.77
2023-02-19T08:44:04.804Z,3.81
2023-02-19T08:46:34.259Z,3.84
2023-02-19T08:49:01.397Z,3.79
2023-02-19T08:51:28.258Z,3.68
2023-02-19T08:53:55.038Z,3.61
2023-02-19T08:56:21.995Z,3.61
2023-02-19T08:58:48.821Z,3.65
2023-02-19T09:01:18.687Z,3.68
2023-02-19T09:03:46.142Z,3.81
2023-02-19T09:06:18.528Z,3.95
2023-02-19T09:08:45.601Z,4.03
2023-02-19T09:11:13.003Z,3.95
2023-02-19T09:13:40.169Z,3.92
2023-02-19T09:16:07.789Z,3.90
2023-02-19T09:18:34.924Z,3.83
2023-02-19T09:21:04.605Z,3.84
2023-02-19T09:23:36.048Z,3.91
2023-02-19T09:26:06.935Z,4.04
2023-02-19T09:28:33.999Z,4.11
2023-02-19T09:31:05.722Z,4.06
2023-02-19T09:33:32.612Z,4.12
2023-02-19T09:36:00.821Z,4.20
2023-02-19T09:38:29.455Z,4.27
2023-02-19T09:40:57.853Z,4.38
2023-02-19T09:43:27.004Z,4.48
2023-02-19T09:46:04.028Z,4.48
2023-02-19T09:48:31.202Z,4.50
2023-02-19T09:50:59.733Z,4.65
2023-02-19T09:53:30.149Z,4.72
2023-02-19T09:55:57.126Z,4.70
2023-02-19T09:58:30.097Z,4.61
2023-02-19T10:00:58.443Z,4.62
2023-02-19T10:03:33.741Z,4.74
2023-02-19T10:06:11.484Z,4.86
2023-02-19T10:08:40.760Z,4.96
2023-02-19T10:11:07.823Z,5.04
2023-02-19T10:13:42.653Z,5.12
2023-02-19T10:16:16.245Z,5.21
2023-02-19T10:18:44.849Z,5.06
2023-02-19T10:21:19.601Z,4.94
2023-02-19T10:23:47.559Z,4.94
2023-02-19T10:26:14.742Z,4.90
2023-02-19T10:28:41.758Z,4.89
2023-02-19T10:31:20.404Z,4.93
2023-02-19T10:33:50.466Z,4.96
2023-02-19T10:36:28.286Z,5.07
2023-02-19T10:38:57.144Z,5.16
2023-02-19T10:41:25.542Z,5.19
2023-02-19T10:44:16.142Z,5.17
2023-02-19T10:46:48.005Z,5.13
2023-02-19T10:49:37.528Z,5.11
2023-02-19T10:52:34.437Z,5.17
2023-02-19T10:55:25.947Z,5.10
2023-02-19T10:57:52.877Z,5.06
2023-02-19T11:00:27.502Z,5.04
2023-02-19T11:03:24.115Z,5.20
2023-02-19T11:05:56.465Z,5.25
2023-02-19T11:08:23.828Z,5.36
2023-02-19T11:10:51.008Z,5.31
2023-02-19T11:13:26.620Z,5.18
2023-02-19T11:15:54.968Z,5.25
2023-02-19T11:18:24.768Z,5.24
2023-02-19T11:21:03.464Z,5.32
2023-02-19T11:23:33.024Z,5.25
2023-02-19T11:26:03.050Z,5.21
2023-02-19T11:28:37.865Z,5.14
2023-02-19T11:31:25.877Z,5.06
2023-02-19T11:34:01.109Z,5.00
2023-02-19T11:36:33.640Z,4.98
2023-02-19T11:39:29.045Z,4.91
2023-02-19T11:42:35.823Z,4.86
2023-02-19T11:45:28.866Z,4.98
2023-02-19T11:48:35.615Z,5.17
2023-02-19T11:51:21.479Z,5.22
2023-02-19T11:54:00.313Z,5.28
2023-02-19T11:56:34.392Z,5.33
2023-02-19T11:59:08.305Z,5.27
2023-02-19T12:02:08.847Z,5.18
2023-02-19T12:04:59.762Z,4.99
2023-02-19T12:08:03.943Z,4.85
2023-02-19T12:11:01.223Z,4.77
2023-02-19T12:13:56.183Z,4.77
2023-02-19T12:16:31.871Z,4.67
2023-02-19T12:19:20.484Z,4.57
2023-02-19T12:22:15.254Z,4.53
2023-02-19T12:25:04.520Z,4.50
2023-02-19T12:28:11.120Z,4.40
2023-02-19T12:30:56.213Z,4.27
2023-02-19T12:34:03.061Z,4.16
2023-02-19T12:37:03.332Z,4.07
2023-02-19T12:40:01.798Z,4.08
2023-02-19T12:42:58.091Z,4.11
2023-02-19T12:45:32.270Z,4.09
2023-02-19T12:48:03.366Z,4.11
2023-02-19T12:50:31.440Z,4.23
2023-02-19T12:53:07.328Z,4.38
2023-02-19T12:55:37.812Z,4.51
2023-02-19T12:58:06.185Z,4.52
2023-02-19T13:00:50.624Z,4.63
2023-02-19T13:03:39.672Z,4.71
2023-02-19T13:06:35.194Z,4.72
2023-02-19T13:09:16.148Z,4.71
2023-02-19T13:11:48.408Z,4.68
2023-02-19T13:14:28.302Z,4.71
2023-02-19T13:17:01.643Z,4.63
2023-02-19T13:19:31.074Z,4.61
2023-02-19T13:22:25.450Z,4.55
2023-02-19T13:24:52.529Z,4.44
2023-02-19T13:27:50.168Z,4.39
2023-02-19T13:30:48.319Z,4.53
2023-02-19T13:33:42.247Z,4.46
2023-02-19T13:36:17.067Z,4.47
2023-02-19T13:38:46.872Z,4.46
2023-02-19T13:41:40.535Z,4.48
2023-02-19T13:44:16.523Z,4.46
2023-02-19T13:46:44.795Z,4.48
2023-02-19T13:49:47.169Z,4.44
2023-02-19T13:52:33.832Z,4.55
2023-02-19T13:55:42.457Z,4.38
2023-02-19T13:58:36.098Z,4.29
2023-02-19T14:01:11.954Z,4.18
2023-02-19T14:03:46.721Z,4.10
2023-02-19T14:06:13.712Z,4.07
2023-02-19T14:08:58.046Z,4.04
2023-02-19T14:12:04.871Z,4.04
2023-02-19T14:14:37.378Z,4.02
2023-02-19T14:17:26.147Z,3.95
2023-02-19T14:19:59.232Z,3.85
2023-02-19T14:22:57.101Z,3.81
2023-02-19T14:25:44.888Z,3.78
2023-02-19T14:28:30.310Z,3.80
2023-02-19T14:31:08.689Z,3.78
2023-02-19T14:33:40.194Z,3.72
2023-02-19T14:36:32.878Z,3.65
2023-02-19T14:39:06.934Z,3.57
2023-02-19T14:41:38.760Z,3.53
2023-02-19T14:44:06.240Z,3.59
2023-02-19T14:46:37.771Z,3.53
2023-02-19T14:49:11.884Z,3.48
2023-02-19T14:51:40.921Z,3.39
2023-02-19T14:54:17.060Z,3.36
2023-02-19T14:56:51.254Z,3.32
2023-02-19T14:59:24.083Z,3.27
2023-02-19T15:01:55.784Z,3.18
2023-02-19T15:04:25.613Z,3.16
2023-02-19T15:06:53.522Z,3.14
2023-02-19T15:09:21.845Z,3.06
2023-02-19T15:11:49.091Z,3.01
2023-02-19T15:14:23.840Z,2.95
2023-02-19T15:16:56.737Z,2.90
2023-02-19T15:19:23.762Z,2.87
2023-02-19T15:21:50.780Z,2.83
2023-02-19T15:24:18.651Z,2.79
2023-02-19T15:26:50.967Z,2.72
2023-02-19T15:29:20.644Z,2.68
2023-02-19T15:31:50.282Z,2.69
2023-02-19T15:34:25.925Z,2.61
2023-02-19T15:37:01.678Z,2.51
2023-02-19T15:39:39.492Z,2.47
2023-02-19T15:42:08.134Z,2.51
2023-02-19T15:44:47.509Z,2.46
2023-02-19T15:47:24.688Z,2.41
2023-02-19T15:49:58.473Z,2.31
2023-02-19T15:52:32.052Z,2.33
2023-02-19T15:55:11.268Z,2.31
2023-02-19T15:57:43.730Z,2.25
2023-02-19T16:00:20.058Z,2.22
2023-02-19T16:02:47.119Z,2.11
2023-02-19T16:05:18.044Z,2.04
2023-02-19T16:07:44.946Z,2.01
2023-02-19T16:10:21.316Z,1.94
2023-02-19T16:12:59.318Z,1.87
2023-02-19T16:15:28.215Z,1.79
2023-02-19T16:17:56.109Z,1.79
2023-02-19T16:20:29.074Z,1.81
2023-02-19T16:23:04.542Z,1.84
2023-02-19T16:25:41.890Z,1.84
2023-02-19T16:28:22.592Z,1.93
2023-02-19T16:31:10.725Z,1.86
2023-02-19T16:33:48.718Z,1.77
2023-02-19T16:36:36.687Z,1.76
2023-02-19T16:39:14.626Z,1.72
2023-02-19T16:42:17.043Z,1.63
2023-02-19T16:44:44.848Z,1.57
2023-02-19T16:47:24.467Z,1.57
2023-02-19T16:49:51.498Z,1.48
2023-02-19T16:52:18.405Z,1.44
2023-02-19T16:54:45.279Z,1.38
2023-02-19T16:57:12.145Z,1.39
2023-02-19T16:59:39.543Z,1.36
2023-02-19T17:02:06.924Z,1.35
2023-02-19T17:04:34.864Z,1.31
2023-02-19T17:07:02.507Z,1.39
2023-02-19T17:09:29.549Z,1.34
2023-02-19T17:11:56.428Z,1.30
2023-02-19T17:14:23.507Z,1.30
2023-02-19T17:16:50.396Z,1.31
2023-02-19T17:19:19.695Z,1.26
2023-02-19T17:21:47.175Z,1.21
2023-02-19T17:24:14.586Z,1.24
2023-02-19T17:26:41.692Z,1.18
2023-02-19T17:29:14.083Z,1.10
2023-02-19T17:31:41.803Z,1.07
2023-02-19T17:34:08.814Z,1.07
2023-02-19T17:36:37.951Z,1.05
2023-02-19T17:39:12.034Z,1.04
2023-02-19T17:41:38.988Z,1.07
2023-02-19T17:44:05.860Z,1.06
2023-02-19T17:46:34.078Z,1.06
2023-02-19T17:49:01.457Z,1.03
2023-02-19T17:51:28.418Z,1.06
2023-02-19T17:53:55.339Z,1.04
2023-02-19T17:56:25.575Z,1.04
2023-02-19T17:58:53.901Z,1.05
2023-02-19T18:01:22.325Z,1.08
2023-02-19T18:03:49.310Z,1.13
2023-02-19T18:06:16.689Z,1.16
2023-02-19T18:08:48.771Z,1.15
2023-02-19T18:11:16.273Z,1.13
2023-02-19T18:13:43.174Z,1.10
2023-02-19T18:16:12.813Z,1.08
2023-02-19T18:18:41.014Z,1.10
2023-02-19T18:21:09.651Z,1.13
2023-02-19T18:23:37.086Z,1.11
2023-02-19T18:26:06.472Z,1.10
2023-02-19T18:28:34.831Z,1.12
2023-02-19T18:31:04.726Z,1.12
2023-02-19T18:33:31.860Z,1.17
2023-02-19T18:35:58.768Z,1.22
2023-02-19T18:38:26.690Z,1.22
2023-02-19T18:40:53.634Z,1.23
2023-02-19T18:43:20.487Z,1.24
2023-02-19T18:45:47.540Z,1.30
2023-02-19T18:48:14.448Z,1.39
2023-02-19T18:50:41.492Z,1.44
2023-02-19T18:53:08.461Z,1.55
2023-02-19T18:55:35.372Z,1.64
2023-02-19T18:58:02.230Z,1.65
2023-02-19T19:00:29.176Z,1.70
2023-02-19T19:02:58.105Z,1.77
2023-02-19T19:05:25.508Z,1.87
2023-02-19T19:07:57.678Z,1.95
2023-02-19T19:10:24.731Z,1.99
2023-02-19T19:12:51.905Z,1.98
2023-02-19T19:15:19.077Z,1.97
2023-02-19T19:17:46.956Z,2.00
2023-02-19T19:20:16.294Z,1.97
2023-02-19T19:22:43.132Z,1.97
2023-02-19T19:25:10.250Z,1.94
2023-02-19T19:27:37.178Z,1.95
2023-02-19T19:30:05.111Z,1.97
2023-02-19T19:32:32.066Z,2.04
2023-02-19T19:34:58.933Z,2.08
2023-02-19T19:37:28.430Z,2.17
2023-02-19T19:39:56.427Z,2.20
2023-02-19T19:42:24.069Z,2.25
2023-02-19T19:44:51.140Z,2.32
2023-02-19T19:47:18.292Z,2.38
2023-02-19T19:49:48.369Z,2.41
2023-02-19T19:52:16.534Z,2.45
2023-02-19T19:54:43.686Z,2.49
2023-02-19T19:57:11.161Z,2.51
2023-02-19T19:59:39.632Z,2.55
2023-02-19T20:02:08.117Z,2.56
2023-02-19T20:04:35.022Z,2.59
2023-02-19T20:07:02.462Z,2.72
2023-02-19T20:09:29.529Z,2.73
2023-02-19T20:11:57.295Z,2.72
2023-02-19T20:14:25.944Z,2.79
2023-02-19T20:16:57.516Z,2.80
2023-02-19T20:19:25.864Z,2.83
2023-02-19T20:21:54.095Z,2.87
2023-02-19T20:24:30.020Z,2.88
2023-02-19T20:27:03.442Z,2.96
2023-02-19T20:29:33.702Z,3.03
2023-02-19T20:32:02.854Z,3.10
2023-02-19T20:34:31.050Z,3.19
2023-02-19T20:37:00.141Z,3.17
2023-02-19T20:39:29.444Z,3.12
2023-02-19T20:41:59.303Z,3.11
2023-02-19T20:44:29.501Z,3.10
2023-02-19T20:46:58.509Z,3.17
2023-02-19T20:49:30.652Z,3.19
2023-02-19T20:51:59.351Z,3.27
2023-02-19T20:54:29.724Z,3.25
2023-02-19T20:56:58.566Z,3.19
2023-02-19T20:59:30.884Z,3.25
2023-02-19T21:01:59.116Z,3.28
2023-02-19T21:04:27.218Z,3.34
2023-02-19T21:06:54.195Z,3.41
2023-02-19T21:09:22.828Z,3.39
2023-02-19T21:11:50.549Z,3.41
2023-02-19T21:14:17.696Z,3.39
2023-02-19T21:16:44.711Z,3.44
2023-02-19T21:19:11.682Z,3.37
2023-02-19T21:21:40.369Z,3.31
2023-02-19T21:24:09.327Z,3.37
2023-02-19T21:26:38.465Z,3.36
2023-02-19T21:29:07.091Z,3.37
2023-02-19T21:31:41.497Z,3.35
2023-02-19T21:34:10.290Z,3.44
2023-02-19T21:36:37.481Z,3.55
2023-02-19T21:39:05.724Z,3.63
2023-02-19T21:41:32.854Z,3.59
2023-02-19T21:43:59.749Z,3.63
2023-02-19T21:46:27.058Z,3.62
2023-02-19T21:48:55.692Z,3.65
2023-02-19T21:51:29.348Z,3.65
2023-02-19T21:53:56.312Z,3.66
2023-02-19T21:56:25.070Z,3.65
2023-02-19T21:58:52.043Z,3.58
2023-02-19T22:01:23.487Z,3.52
2023-02-19T22:03:50.610Z,3.51
2023-02-19T22:06:18.116Z,3.46
2023-02-19T22:08:45.269Z,3.40
2023-02-19T22:11:12.298Z,3.42
2023-02-19T22:13:39.766Z,3.39
2023-02-19T22:16:07.091Z,3.34
2023-02-19T22:18:34.678Z,3.27
2023-02-19T22:21:02.721Z,3.27
2023-02-19T22:23:29.558Z,3.28
2023-02-19T22:25:56.524Z,3.25
2023-02-19T22:28:23.337Z,3.24
2023-02-19T22:30:50.286Z,3.27
2023-02-19T22:33:17.280Z,3.29
2023-02-19T22:35:44.208Z,3.26
2023-02-19T22:38:11.152Z,3.25
2023-02-19T22:40:38.077Z,3.23
2023-02-19T22:43:04.900Z,3.24
2023-02-19T22:45:31.843Z,3.26
2023-02-19T22:47:58.766Z,3.23
2023-02-19T22:50:26.594Z,3.17
2023-02-19T22:52:56.418Z,3.19
2023-02-19T22:55:23.287Z,3.18
2023-02-19T22:57:50.141Z,3.16
2023-02-19T23:00:23.881Z,3.21
2023-02-19T23:02:50.798Z,3.28
2023-02-19T23:05:17.741Z,3.32
2023-02-19T23:07:45.825Z,3.36
2023-02-19T23:10:13.630Z,3.41
2023-02-19T23:12:40.950Z,3.44
2023-02-19T23:15:09.554Z,3.42
2023-02-19T23:17:36.631Z,3.47
2023-02-19T23:20:04.136Z,3.55
2023-02-19T23:22:30.976Z,3.56
2023-02-19T23:24:57.775Z,3.62
2023-02-19T23:27:26.700Z,3.62
2023-02-19T23:29:53.526Z,3.66
2023-02-19T23:32:21.162Z,3.66
2023-02-19T23:34:48.345Z,3.69
2023-02-19T23:37:15.764Z,3.69
2023-02-19T23:39:42.716Z,3.80
2023-02-19T23:42:13.846Z,3.79
2023-02-19T23:44:40.640Z,3.79
2023-02-19T23:47:07.443Z,3.78
2023-02-19T23:49:34.289Z,3.83
2023-02-19T23:52:01.081Z,3.78
2023-02-19T23:54:27.919Z,3.81
2023-02-19T23:56:55.740Z,3.85
2023-02-19T23:59:22.768Z,3.80
